Terminal Aerodrome Forecast
Issued by NWS Charleston, WV

Current Version | Previous Version | Text Only | Print | Product List | Glossary Off
Versions: 1 2 3 4 5 6 7 8 9 10 11 12 13 14 15 16 17 18 19 20 21 22 23

995
FTUS41 KRLX 190538
TAFHTS
TAF
KHTS 190538Z 1906/2006 00000KT P6SM BKN015
     FM191000 00000KT 3SM BR SCT015 SCT150
     FM191400 11005KT P6SM SCT150
     FM200200 09005KT 6SM SHRA OVC050=

USA.gov is the U.S. government's official web portal to all federal, state and local government web resources and services.